createdAt,value
2022-09-09T00:01:39.183Z,3.67
2022-09-09T00:04:34.850Z,3.35
2022-09-09T00:07:19.821Z,4.25
2022-09-09T00:10:04.174Z,3.88
2022-09-09T00:12:45.837Z,3.38
2022-09-09T00:15:15.327Z,3.03
2022-09-09T00:18:01.175Z,2.60
2022-09-09T00:20:44.160Z,2.85
2022-09-09T00:23:21.706Z,3.13
2022-09-09T00:26:02.508Z,3.00
2022-09-09T00:28:33.222Z,3.08
2022-09-09T00:31:14.116Z,2.85
2022-09-09T00:33:42.457Z,3.65
2022-09-09T00:36:23.815Z,4.20
2022-09-09T00:38:56.333Z,3.88
2022-09-09T00:41:29.909Z,3.60
2022-09-09T00:44:16.661Z,3.87
2022-09-09T00:47:13.049Z,3.15
2022-09-09T00:50:01.641Z,3.50
2022-09-09T00:52:53.085Z,3.70
2022-09-09T00:55:29.599Z,2.88
2022-09-09T00:57:57.066Z,3.53
2022-09-09T01:00:50.397Z,3.38
2022-09-09T01:03:37.183Z,3.85
2022-09-09T01:06:12.896Z,4.78
2022-09-09T01:09:08.221Z,5.45
2022-09-09T01:11:58.082Z,5.93
2022-09-09T01:14:40.912Z,6.15
2022-09-09T01:17:18.371Z,7.80
2022-09-09T01:19:45.080Z,5.97
2022-09-09T01:23:00.276Z,5.10
2022-09-09T01:25:45.172Z,6.15
2022-09-09T01:28:19.067Z,4.80
2022-09-09T01:30:45.940Z,4.97
2022-09-09T01:33:16.949Z,4.40
2022-09-09T01:35:52.143Z,3.58
2022-09-09T01:38:19.577Z,3.58
2022-09-09T01:40:46.494Z,3.97
2022-09-09T01:43:13.748Z,2.95
2022-09-09T01:45:43.349Z,2.80
2022-09-09T01:48:10.246Z,2.75
2022-09-09T01:50:37.061Z,2.60
2022-09-09T01:53:04.505Z,2.42
2022-09-09T01:55:35.923Z,1.92
2022-09-09T01:58:12.834Z,2.25
2022-09-09T02:00:49.877Z,2.35
2022-09-09T02:03:28.817Z,2.42
2022-09-09T02:06:04.402Z,2.75
2022-09-09T02:08:44.506Z,2.65
2022-09-09T02:11:15.452Z,2.55
2022-09-09T02:13:44.141Z,3.25
2022-09-09T02:16:16.504Z,3.25
2022-09-09T02:18:55.907Z,2.90
2022-09-09T02:21:24.242Z,2.45
2022-09-09T02:23:54.045Z,2.70
2022-09-09T02:26:24.307Z,2.88
2022-09-09T02:28:53.926Z,2.60
2022-09-09T02:31:23.596Z,3.13
2022-09-09T02:33:59.796Z,3.20
2022-09-09T02:36:30.455Z,2.83
2022-09-09T02:38:57.815Z,2.70
2022-09-09T02:41:29.830Z,3.20
2022-09-09T02:43:57.896Z,3.00
2022-09-09T02:46:29.969Z,2.80
2022-09-09T02:49:03.011Z,4.00
2022-09-09T02:51:42.095Z,2.83
2022-09-09T02:54:22.101Z,3.55
2022-09-09T02:56:57.273Z,3.55
2022-09-09T02:59:26.124Z,2.75
2022-09-09T03:01:54.275Z,3.08
2022-09-09T03:04:21.578Z,3.10
2022-09-09T03:06:51.365Z,2.20
2022-09-09T03:09:18.135Z,2.63
2022-09-09T03:11:45.048Z,2.47
2022-09-09T03:14:12.332Z,2.65
2022-09-09T03:16:39.235Z,2.05
2022-09-09T03:19:07.240Z,1.98
2022-09-09T03:21:34.164Z,2.00
2022-09-09T03:24:04.248Z,1.90
2022-09-09T03:26:32.731Z,1.38
2022-09-09T03:29:01.377Z,1.60
2022-09-09T03:31:31.159Z,1.60
2022-09-09T03:34:01.282Z,1.17
2022-09-09T03:36:29.104Z,0.80
2022-09-09T03:38:56.033Z,0.80
2022-09-09T03:41:24.901Z,0.82
2022-09-09T03:43:55.144Z,0.93
2022-09-09T03:46:24.353Z,0.75
2022-09-09T03:48:53.094Z,0.85
2022-09-09T03:51:20.334Z,1.30
2022-09-09T03:53:47.550Z,1.85
2022-09-09T03:56:15.352Z,1.40
2022-09-09T03:58:42.160Z,1.98
2022-09-09T04:01:14.394Z,2.55
2022-09-09T04:03:41.861Z,2.45
2022-09-09T04:06:11.341Z,3.45
2022-09-09T04:08:39.670Z,3.65
2022-09-09T04:11:07.471Z,3.67
2022-09-09T04:13:36.501Z,4.35
2022-09-09T04:16:04.891Z,4.38
2022-09-09T04:18:32.703Z,3.63
2022-09-09T04:20:59.620Z,4.10
2022-09-09T04:23:29.778Z,3.40
2022-09-09T04:25:57.904Z,3.33
2022-09-09T04:28:26.807Z,3.65
2022-09-09T04:30:53.580Z,4.45
2022-09-09T04:33:20.776Z,3.33
2022-09-09T04:35:49.502Z,3.10
2022-09-09T04:38:17.747Z,3.58
2022-09-09T04:40:48.429Z,4.15
2022-09-09T04:43:16.499Z,3.20
2022-09-09T04:45:44.370Z,3.50
2022-09-09T04:48:11.211Z,3.88
2022-09-09T04:50:38.026Z,2.95
2022-09-09T04:53:06.244Z,2.75
2022-09-09T04:55:34.142Z,3.60
2022-09-09T04:58:06.104Z,3.08
2022-09-09T05:00:34.896Z,3.28
2022-09-09T05:03:05.153Z,3.05
2022-09-09T05:05:32.632Z,3.17
2022-09-09T05:08:06.992Z,3.63
2022-09-09T05:10:35.173Z,3.58
2022-09-09T05:13:01.948Z,3.95
2022-09-09T05:15:28.731Z,3.97
2022-09-09T05:18:00.241Z,3.75
2022-09-09T05:20:27.591Z,2.95
2022-09-09T05:22:55.673Z,2.85
2022-09-09T05:25:23.197Z,3.42
2022-09-09T05:27:50.625Z,3.70
2022-09-09T05:30:19.820Z,3.33
2022-09-09T05:32:47.552Z,3.10
2022-09-09T05:35:14.555Z,3.38
2022-09-09T05:37:41.398Z,3.38
2022-09-09T05:40:09.263Z,3.63
2022-09-09T05:42:36.145Z,3.58
2022-09-09T05:45:02.942Z,3.67
2022-09-09T05:47:30.123Z,3.20
2022-09-09T05:49:56.986Z,3.30
2022-09-09T05:52:24.860Z,3.13
2022-09-09T05:54:51.691Z,3.47
2022-09-09T05:57:20.398Z,3.40
2022-09-09T05:59:47.377Z,3.00
2022-09-09T06:02:14.625Z,4.15
2022-09-09T06:04:41.491Z,3.08
2022-09-09T06:07:08.478Z,3.33
2022-09-09T06:09:35.256Z,3.38
2022-09-09T06:12:02.177Z,3.15
2022-09-09T06:14:29.100Z,3.05
2022-09-09T06:16:55.840Z,3.35
2022-09-09T06:19:22.739Z,3.58
2022-09-09T06:21:50.055Z,3.53
2022-09-09T06:24:18.393Z,3.42
2022-09-09T06:26:46.545Z,3.75
2022-09-09T06:29:13.477Z,3.60
2022-09-09T06:31:40.412Z,2.72
2022-09-09T06:34:08.956Z,3.08
2022-09-09T06:36:38.127Z,2.88
2022-09-09T06:39:08.773Z,3.30
2022-09-09T06:41:39.280Z,3.00
2022-09-09T06:44:06.114Z,3.55
2022-09-09T06:46:34.151Z,3.75
2022-09-09T06:49:01.761Z,3.25
2022-09-09T06:51:31.551Z,3.15
2022-09-09T06:54:00.612Z,3.33
2022-09-09T06:56:29.867Z,2.83
2022-09-09T06:58:59.497Z,3.28
2022-09-09T07:01:29.313Z,2.60
2022-09-09T07:03:58.522Z,2.90
2022-09-09T07:06:27.979Z,3.38
2022-09-09T07:08:57.161Z,2.85
2022-09-09T07:11:27.828Z,3.65
2022-09-09T07:13:55.509Z,2.42
2022-09-09T07:16:28.432Z,3.38
2022-09-09T07:18:59.005Z,3.13
2022-09-09T07:21:28.010Z,3.00
2022-09-09T07:23:55.627Z,3.38
2022-09-09T07:26:24.825Z,3.53
2022-09-09T07:28:53.379Z,2.88
2022-09-09T07:31:35.686Z,2.90
2022-09-09T07:34:03.569Z,2.97
2022-09-09T07:36:35.561Z,2.80
2022-09-09T07:39:05.081Z,3.13
2022-09-09T07:41:44.863Z,2.40
2022-09-09T07:44:14.892Z,3.03
2022-09-09T07:46:42.705Z,3.65
2022-09-09T07:49:11.036Z,2.58
2022-09-09T07:51:43.487Z,2.80
2022-09-09T07:54:14.010Z,3.22
2022-09-09T07:56:42.177Z,2.50
2022-09-09T07:59:09.817Z,2.85
2022-09-09T08:01:40.370Z,3.13
2022-09-09T08:04:16.115Z,2.75
2022-09-09T08:06:47.315Z,2.97
2022-09-09T08:09:14.496Z,2.55
2022-09-09T08:11:42.176Z,2.25
2022-09-09T08:14:10.491Z,2.58
2022-09-09T08:16:41.320Z,2.83
2022-09-09T08:19:08.552Z,2.30
2022-09-09T08:21:38.487Z,1.58
2022-09-09T08:24:08.947Z,1.85
2022-09-09T08:26:44.630Z,1.63
2022-09-09T08:29:14.086Z,1.10
2022-09-09T08:31:45.417Z,2.08
2022-09-09T08:34:12.549Z,1.90
2022-09-09T08:36:43.326Z,1.70
2022-09-09T08:39:12.049Z,1.45
2022-09-09T08:42:01.693Z,1.17
2022-09-09T08:44:59.356Z,1.35
2022-09-09T08:47:50.307Z,1.77
2022-09-09T08:50:26.283Z,2.25
2022-09-09T08:52:56.509Z,1.48
2022-09-09T08:55:37.725Z,1.35
2022-09-09T08:58:15.518Z,1.58
2022-09-09T09:01:11.758Z,1.50
2022-09-09T09:04:03.493Z,1.42
2022-09-09T09:06:39.156Z,1.40
2022-09-09T09:09:08.988Z,1.58
2022-09-09T09:11:41.629Z,1.00
2022-09-09T09:14:24.445Z,1.15
2022-09-09T09:17:06.448Z,0.90
2022-09-09T09:19:35.810Z,1.27
2022-09-09T09:22:20.993Z,0.95
2022-09-09T09:24:53.932Z,1.38
2022-09-09T09:27:40.151Z,1.38
2022-09-09T09:30:28.696Z,1.15
2022-09-09T09:33:02.678Z,1.48
2022-09-09T09:35:29.971Z,0.70
2022-09-09T09:40:59.072Z,0.82
2022-09-09T09:43:31.766Z,0.30
2022-09-09T09:46:17.999Z,0.95
2022-09-09T09:48:47.304Z,0.68
2022-09-09T09:51:17.576Z,0.90
2022-09-09T09:53:44.643Z,1.13
2022-09-09T09:56:14.264Z,1.42
2022-09-09T09:58:51.111Z,0.75
2022-09-09T10:01:36.942Z,0.43
2022-09-09T10:04:21.256Z,0.50
2022-09-09T10:06:48.542Z,0.40
2022-09-09T10:09:28.175Z,0.60
2022-09-09T10:12:32.640Z,0.73
2022-09-09T10:15:07.098Z,0.63
2022-09-09T10:17:56.151Z,0.38
2022-09-09T10:20:36.238Z,0.88
2022-09-09T10:23:41.813Z,1.27
2022-09-09T10:26:27.279Z,0.52
2022-09-09T10:29:03.063Z,1.30
2022-09-09T10:31:58.071Z,1.23
2022-09-09T10:37:23.653Z,0.65
2022-09-09T10:39:59.250Z,0.47
2022-09-09T10:42:31.887Z,0.47
2022-09-09T10:45:24.418Z,0.60
2022-09-09T10:48:03.022Z,0.70
2022-09-09T10:51:00.523Z,1.33
2022-09-09T10:53:39.721Z,0.55
2022-09-09T10:56:15.916Z,0.40
2022-09-09T10:58:44.952Z,0.30
2022-09-09T11:01:25.687Z,0.90
2022-09-09T11:04:14.806Z,0.43
2022-09-09T11:06:47.557Z,0.77
2022-09-09T11:09:19.594Z,0.60
2022-09-09T11:11:55.916Z,0.47
2022-09-09T11:14:44.575Z,0.60
2022-09-09T11:17:21.494Z,0.95
2022-09-09T11:19:48.526Z,1.08
2022-09-09T11:22:30.686Z,0.50
2022-09-09T11:25:20.172Z,0.60
2022-09-09T11:28:06.271Z,0.50
2022-09-09T11:31:22.137Z,0.70
2022-09-09T11:34:15.237Z,0.65
2022-09-09T11:37:05.986Z,0.55
2022-09-09T11:40:17.430Z,0.63
2022-09-09T11:42:44.568Z,0.50
2022-09-09T11:45:25.430Z,0.40
2022-09-09T11:47:57.516Z,0.55
2022-09-09T11:50:31.519Z,0.95
2022-09-09T11:53:13.539Z,0.60
2022-09-09T11:55:40.693Z,0.50
2022-09-09T11:58:20.189Z,0.50
2022-09-09T12:00:51.380Z,0.50
2022-09-09T12:03:48.059Z,0.60
2022-09-09T12:06:33.944Z,0.90
2022-09-09T12:09:41.976Z,0.50
2022-09-09T12:12:14.938Z,0.50
2022-09-09T12:14:57.864Z,0.38
2022-09-09T12:17:26.448Z,0.25
2022-09-09T12:20:11.930Z,0.63
2022-09-09T12:23:00.700Z,0.68
2022-09-09T12:25:52.474Z,0.38
2022-09-09T12:28:28.909Z,0.13
2022-09-09T12:31:19.069Z,0.38
2022-09-09T12:33:48.516Z,0.50
2022-09-09T12:36:29.427Z,0.40
2022-09-09T12:38:59.370Z,0.30
2022-09-09T12:41:27.994Z,0.52
2022-09-09T12:44:10.120Z,0.70
2022-09-09T12:46:39.268Z,0.40
2022-09-09T12:49:07.481Z,0.30
2022-09-09T12:51:35.199Z,1.10
2022-09-09T12:54:02.150Z,1.20
2022-09-09T12:56:32.453Z,0.82
2022-09-09T12:58:59.820Z,0.30
2022-09-09T13:01:28.017Z,0.50
2022-09-09T13:03:55.796Z,0.63
2022-09-09T13:06:33.546Z,0.57
2022-09-09T13:09:02.820Z,0.57
2022-09-09T13:11:39.888Z,0.30
2022-09-09T13:14:07.492Z,0.43
2022-09-09T13:16:41.856Z,0.52
2022-09-09T13:19:19.336Z,0.50
2022-09-09T13:21:46.317Z,0.22
2022-09-09T13:24:32.525Z,0.40
2022-09-09T13:27:04.708Z,0.60
2022-09-09T13:29:33.486Z,0.43
2022-09-09T13:32:08.837Z,0.43
2022-09-09T13:34:37.047Z,0.75
2022-09-09T13:37:17.021Z,0.35
2022-09-09T13:39:54.307Z,0.50
2022-09-09T13:42:27.555Z,0.55
2022-09-09T13:44:56.576Z,1.15
2022-09-09T13:47:33.017Z,0.20
2022-09-09T13:49:59.965Z,0.32
2022-09-09T13:52:31.951Z,0.73
2022-09-09T13:55:00.315Z,0.50
2022-09-09T13:57:27.184Z,0.32
2022-09-09T14:00:06.151Z,0.40
2022-09-09T14:02:34.775Z,0.80
2022-09-09T14:05:01.931Z,0.32
2022-09-09T14:07:29.427Z,0.45
2022-09-09T14:09:56.595Z,0.50
2022-09-09T14:12:23.388Z,0.30
2022-09-09T14:14:50.948Z,0.57
2022-09-09T14:17:18.586Z,0.30
2022-09-09T14:19:46.985Z,0.30
2022-09-09T14:22:13.778Z,0.28
2022-09-09T14:24:40.581Z,0.30
2022-09-09T14:27:07.586Z,0.30
2022-09-09T14:29:34.540Z,0.20
2022-09-09T14:32:01.979Z,0.25
2022-09-09T14:34:28.928Z,0.40
2022-09-09T14:36:55.719Z,0.52
2022-09-09T14:39:22.505Z,0.30
2022-09-09T14:41:49.272Z,0.10
2022-09-09T14:44:17.092Z,0.30
2022-09-09T14:46:43.868Z,0.20
2022-09-09T14:49:13.827Z,0.22
2022-09-09T14:51:40.736Z,0.38
2022-09-09T14:54:07.574Z,0.17
2022-09-09T14:56:37.709Z,0.10
2022-09-09T14:59:05.403Z,0.10
2022-09-09T15:01:33.162Z,0.20
2022-09-09T15:04:02.769Z,0.22
2022-09-09T15:06:33.993Z,0.52
2022-09-09T15:09:01.368Z,0.32
2022-09-09T15:11:31.398Z,0.35
2022-09-09T15:13:59.340Z,0.32
2022-09-09T15:16:28.718Z,1.00
2022-09-09T15:18:59.141Z,0.20
2022-09-09T15:21:28.834Z,0.20
2022-09-09T15:23:56.393Z,0.20
2022-09-09T15:26:23.305Z,0.60
2022-09-09T15:28:51.754Z,0.65
2022-09-09T15:31:27.212Z,0.65
2022-09-09T15:34:01.979Z,0.25
2022-09-09T15:36:32.984Z,0.38
2022-09-09T15:39:05.044Z,0.38
2022-09-09T15:41:35.404Z,0.52
2022-09-09T15:44:02.493Z,0.28
2022-09-09T15:46:38.543Z,0.35
2022-09-09T15:49:20.590Z,0.50
2022-09-09T15:51:53.021Z,0.30
2022-09-09T15:54:24.288Z,0.30
2022-09-09T15:56:55.838Z,0.60
2022-09-09T15:59:28.759Z,0.20
2022-09-09T16:01:56.196Z,0.30
2022-09-09T16:04:24.605Z,0.40
2022-09-09T16:06:56.833Z,1.52
2022-09-09T16:09:23.585Z,0.35
2022-09-09T16:11:50.551Z,0.47
2022-09-09T16:14:17.352Z,0.95
2022-09-09T16:16:44.436Z,0.30
2022-09-09T16:19:13.649Z,0.77
2022-09-09T16:21:51.398Z,0.43
2022-09-09T16:24:20.598Z,0.40
2022-09-09T16:26:50.209Z,0.65
2022-09-09T16:29:19.030Z,0.50
2022-09-09T16:31:47.755Z,0.50
2022-09-09T16:34:16.066Z,0.30
2022-09-09T16:36:45.006Z,0.70
2022-09-09T16:39:17.587Z,0.77
2022-09-09T16:41:45.947Z,0.50
2022-09-09T16:44:14.185Z,0.40
2022-09-09T16:46:43.877Z,0.35
2022-09-09T16:49:13.695Z,0.68
2022-09-09T16:51:43.038Z,0.43
2022-09-09T16:54:10.870Z,0.47
2022-09-09T16:56:42.186Z,0.40
2022-09-09T16:59:21.711Z,0.30
2022-09-09T17:01:51.742Z,1.15
2022-09-09T17:04:21.811Z,0.60
2022-09-09T17:06:54.199Z,0.40
2022-09-09T17:09:23.526Z,0.70
2022-09-09T17:11:53.066Z,0.73
2022-09-09T17:14:21.930Z,0.57
2022-09-09T17:16:49.319Z,0.30
2022-09-09T17:19:16.947Z,0.32
2022-09-09T17:22:05.812Z,0.75
2022-09-09T17:24:30.652Z,0.40
2022-09-09T17:26:58.563Z,0.45
2022-09-09T17:29:26.355Z,0.43
2022-09-09T17:31:53.265Z,0.38
2022-09-09T17:34:20.256Z,0.50
2022-09-09T17:36:47.385Z,0.60
2022-09-09T17:39:14.381Z,0.35
2022-09-09T17:41:41.739Z,0.60
2022-09-09T17:44:10.573Z,0.70
2022-09-09T17:46:41.511Z,0.52
2022-09-09T17:49:11.492Z,0.52
2022-09-09T17:51:39.015Z,0.45
2022-09-09T17:54:11.454Z,0.50
2022-09-09T17:56:40.098Z,0.60
2022-09-09T17:59:10.205Z,0.47
2022-09-09T18:01:39.591Z,0.55
2022-09-09T18:04:09.313Z,0.40
2022-09-09T18:06:39.477Z,0.63
2022-09-09T18:09:13.321Z,0.50
2022-09-09T18:11:45.888Z,0.90
2022-09-09T18:14:17.498Z,0.60
2022-09-09T18:16:44.806Z,0.80
2022-09-09T18:19:13.874Z,0.60
2022-09-09T18:21:42.697Z,0.57
2022-09-09T18:24:11.734Z,0.73
2022-09-09T18:26:40.221Z,0.50
2022-09-09T18:29:11.182Z,0.77
2022-09-09T18:31:38.349Z,0.60
2022-09-09T18:34:07.870Z,0.35
2022-09-09T18:36:44.375Z,0.63
2022-09-09T18:39:13.286Z,0.80
2022-09-09T18:41:47.227Z,0.75
2022-09-09T18:44:16.884Z,0.80
2022-09-09T18:46:44.768Z,0.82
2022-09-09T18:49:12.094Z,0.80
2022-09-09T18:51:41.169Z,1.08
2022-09-09T18:54:19.786Z,1.17
2022-09-09T18:56:47.523Z,0.80
2022-09-09T18:59:21.256Z,0.90
2022-09-09T19:01:50.009Z,1.20
2022-09-09T19:04:17.680Z,1.30
2022-09-09T19:06:47.280Z,1.17
2022-09-09T19:09:17.235Z,1.05
2022-09-09T19:11:45.572Z,1.58
2022-09-09T19:14:15.695Z,1.58
2022-09-09T19:16:45.272Z,1.58
2022-09-09T19:19:18.725Z,1.00
2022-09-09T19:21:45.678Z,1.02
2022-09-09T19:24:21.002Z,1.23
2022-09-09T19:26:52.230Z,1.38
2022-09-09T19:29:22.236Z,0.95
2022-09-09T19:32:18.580Z,0.88
2022-09-09T19:34:37.583Z,1.20
2022-09-09T19:37:04.908Z,1.30
2022-09-09T19:39:34.398Z,1.20
2022-09-09T19:42:01.873Z,0.68
2022-09-09T19:44:28.896Z,1.00
2022-09-09T19:46:55.930Z,1.10
2022-09-09T19:49:22.794Z,1.52
2022-09-09T19:51:49.676Z,1.00
2022-09-09T19:54:16.551Z,1.17
2022-09-09T19:56:44.215Z,0.80
2022-09-09T19:59:12.881Z,0.82
2022-09-09T20:01:47.464Z,1.23
2022-09-09T20:04:15.362Z,0.90
2022-09-09T20:06:44.349Z,0.85
2022-09-09T20:09:17.195Z,1.15
2022-09-09T20:11:45.676Z,1.05
2022-09-09T20:14:13.221Z,1.50
2022-09-09T20:16:40.179Z,1.08
2022-09-09T20:19:10.231Z,1.40
2022-09-09T20:21:47.866Z,1.00
2022-09-09T20:24:16.891Z,1.17
2022-09-09T20:26:44.548Z,0.93
2022-09-09T20:29:16.166Z,1.08
2022-09-09T20:31:44.318Z,1.20
2022-09-09T20:34:15.016Z,1.15
2022-09-09T20:36:42.997Z,1.13
2022-09-09T20:39:11.890Z,1.73
2022-09-09T20:41:40.180Z,1.15
2022-09-09T20:44:12.370Z,1.48
2022-09-09T20:46:41.334Z,1.20
2022-09-09T20:49:09.967Z,1.60
2022-09-09T20:51:37.175Z,1.60
2022-09-09T20:54:08.550Z,1.00
2022-09-09T20:56:39.255Z,1.33
2022-09-09T20:59:15.234Z,1.10
2022-09-09T21:01:42.349Z,1.60
2022-09-09T21:04:09.791Z,1.60
2022-09-09T21:06:37.152Z,1.35
2022-09-09T21:09:04.672Z,1.85
2022-09-09T21:11:31.926Z,1.73
2022-09-09T21:13:59.612Z,1.40
2022-09-09T21:16:26.584Z,2.03
2022-09-09T21:18:53.521Z,1.90
2022-09-09T21:21:21.131Z,1.90
2022-09-09T21:23:49.246Z,2.20
2022-09-09T21:26:17.974Z,2.15
2022-09-09T21:28:45.298Z,2.15
2022-09-09T21:31:27.009Z,1.92
2022-09-09T21:33:54.520Z,1.67
2022-09-09T21:36:21.325Z,2.05
2022-09-09T21:38:48.123Z,2.03
2022-09-09T21:41:16.355Z,1.75
2022-09-09T21:43:44.803Z,1.67
2022-09-09T21:46:14.809Z,2.33
2022-09-09T21:48:42.202Z,1.70
2022-09-09T21:51:14.698Z,2.63
2022-09-09T21:53:41.852Z,1.95
2022-09-09T21:56:13.112Z,2.10
2022-09-09T21:58:41.172Z,1.58
2022-09-09T22:01:14.560Z,2.17
2022-09-09T22:03:42.752Z,2.35
2022-09-09T22:06:12.808Z,2.30
2022-09-09T22:08:40.066Z,2.22
2022-09-09T22:11:12.616Z,2.30
2022-09-09T22:13:39.408Z,2.53
2022-09-09T22:16:08.067Z,2.25
2022-09-09T22:18:35.500Z,2.80
2022-09-09T22:21:08.352Z,2.60
2022-09-09T22:23:36.685Z,2.92
2022-09-09T22:26:04.915Z,2.47
2022-09-09T22:28:33.968Z,3.38
2022-09-09T22:31:01.474Z,2.67
2022-09-09T22:33:28.525Z,2.40
2022-09-09T22:35:55.584Z,2.38
2022-09-09T22:38:22.683Z,2.65
2022-09-09T22:40:49.572Z,3.03
2022-09-09T22:43:21.722Z,3.03
2022-09-09T22:45:49.957Z,2.10
2022-09-09T22:48:17.041Z,2.50
2022-09-09T22:50:44.813Z,3.67
2022-09-09T22:53:14.873Z,2.33
2022-09-09T22:55:41.948Z,2.85
2022-09-09T22:58:09.699Z,3.38
2022-09-09T23:00:40.808Z,2.90
2022-09-09T23:03:07.891Z,2.47
2022-09-09T23:05:36.184Z,2.63
2022-09-09T23:08:03.036Z,2.72
2022-09-09T23:10:33.403Z,2.47
2022-09-09T23:13:00.439Z,2.50
2022-09-09T23:15:29.307Z,2.65
2022-09-09T23:17:56.056Z,2.78
2022-09-09T23:20:24.161Z,3.42
2022-09-09T23:22:50.987Z,3.38
2022-09-09T23:25:17.824Z,2.95
2022-09-09T23:27:45.552Z,3.55
2022-09-09T23:30:12.705Z,3.92
2022-09-09T23:32:39.460Z,4.05
2022-09-09T23:35:07.409Z,3.80
2022-09-09T23:37:34.893Z,3.85
2022-09-09T23:40:02.014Z,4.63
2022-09-09T23:42:33.385Z,4.30
2022-09-09T23:45:00.251Z,4.00
2022-09-09T23:47:27.554Z,4.82
2022-09-09T23:49:54.331Z,5.65
2022-09-09T23:52:22.075Z,4.78
2022-09-09T23:54:50.006Z,4.63
2022-09-09T23:57:16.756Z,4.50
2022-09-09T23:59:43.512Z,4.53
